sensor_id;sensor_type;location;lat;lon;timestamp;P1;durP1;ratioP1;P2;durP2;ratioP2
12892;SDS011;6514;48.606;9.222;2023-11-19T00:01:33;1.93;;;1.73;;
12892;SDS011;6514;48.606;9.222;2023-11-19T00:04:00;2.73;;;1.93;;
12892;SDS011;6514;48.606;9.222;2023-11-19T00:06:27;2.30;;;1.70;;
12892;SDS011;6514;48.606;9.222;2023-11-19T00:08:55;2.97;;;1.80;;
12892;SDS011;6514;48.606;9.222;2023-11-19T00:11:22;2.30;;;1.70;;
12892;SDS011;6514;48.606;9.222;2023-11-19T00:13:49;2.07;;;1.83;;
12892;SDS011;6514;48.606;9.222;2023-11-19T00:16:16;1.50;;;1.40;;
12892;SDS011;6514;48.606;9.222;2023-11-19T00:18:43;1.80;;;1.50;;
12892;SDS011;6514;48.606;9.222;2023-11-19T00:21:09;1.90;;;1.50;;
12892;SDS011;6514;48.606;9.222;2023-11-19T00:23:36;2.40;;;1.47;;
12892;SDS011;6514;48.606;9.222;2023-11-19T00:26:05;1.47;;;1.37;;
12892;SDS011;6514;48.606;9.222;2023-11-19T00:28:32;1.90;;;1.43;;
12892;SDS011;6514;48.606;9.222;2023-11-19T00:30:59;1.43;;;1.30;;
12892;SDS011;6514;48.606;9.222;2023-11-19T00:33:26;2.53;;;1.33;;
12892;SDS011;6514;48.606;9.222;2023-11-19T00:35:53;1.93;;;1.50;;
12892;SDS011;6514;48.606;9.222;2023-11-19T00:38:20;1.97;;;1.30;;
12892;SDS011;6514;48.606;9.222;2023-11-19T00:40:47;3.37;;;1.57;;
12892;SDS011;6514;48.606;9.222;2023-11-19T00:43:16;2.23;;;1.70;;
12892;SDS011;6514;48.606;9.222;2023-11-19T00:45:44;3.03;;;1.67;;
12892;SDS011;6514;48.606;9.222;2023-11-19T00:48:11;2.03;;;1.83;;
12892;SDS011;6514;48.606;9.222;2023-11-19T00:50:38;2.40;;;2.20;;
12892;SDS011;6514;48.606;9.222;2023-11-19T00:53:09;2.63;;;1.50;;
12892;SDS011;6514;48.606;9.222;2023-11-19T00:55:36;4.73;;;2.03;;
12892;SDS011;6514;48.606;9.222;2023-11-19T00:58:02;2.50;;;2.30;;
12892;SDS011;6514;48.606;9.222;2023-11-19T01:00:30;2.57;;;2.07;;
12892;SDS011;6514;48.606;9.222;2023-11-19T01:02:57;2.20;;;1.90;;
12892;SDS011;6514;48.606;9.222;2023-11-19T01:05:25;2.97;;;1.87;;
12892;SDS011;6514;48.606;9.222;2023-11-19T01:07:53;1.70;;;1.60;;
12892;SDS011;6514;48.606;9.222;2023-11-19T01:10:20;2.73;;;1.87;;
12892;SDS011;6514;48.606;9.222;2023-11-19T01:12:47;3.67;;;1.80;;
12892;SDS011;6514;48.606;9.222;2023-11-19T01:15:14;1.93;;;1.63;;
12892;SDS011;6514;48.606;9.222;2023-11-19T01:17:45;1.77;;;1.50;;
12892;SDS011;6514;48.606;9.222;2023-11-19T01:20:11;2.67;;;1.70;;
12892;SDS011;6514;48.606;9.222;2023-11-19T01:22:38;2.00;;;1.80;;
12892;SDS011;6514;48.606;9.222;2023-11-19T01:25:05;3.70;;;1.70;;
12892;SDS011;6514;48.606;9.222;2023-11-19T01:27:33;3.33;;;1.80;;
12892;SDS011;6514;48.606;9.222;2023-11-19T01:30:00;3.03;;;1.70;;
12892;SDS011;6514;48.606;9.222;2023-11-19T01:32:28;2.13;;;1.80;;
12892;SDS011;6514;48.606;9.222;2023-11-19T01:34:56;1.53;;;1.43;;
12892;SDS011;6514;48.606;9.222;2023-11-19T01:37:24;1.70;;;1.60;;
12892;SDS011;6514;48.606;9.222;2023-11-19T01:39:50;1.87;;;1.63;;
12892;SDS011;6514;48.606;9.222;2023-11-19T01:42:17;1.70;;;1.60;;
12892;SDS011;6514;48.606;9.222;2023-11-19T01:44:54;3.13;;;1.53;;
12892;SDS011;6514;48.606;9.222;2023-11-19T01:47:23;2.93;;;1.80;;
12892;SDS011;6514;48.606;9.222;2023-11-19T01:49:51;1.40;;;1.30;;
12892;SDS011;6514;48.606;9.222;2023-11-19T01:52:19;2.30;;;1.77;;
12892;SDS011;6514;48.606;9.222;2023-11-19T01:54:46;1.60;;;1.20;;
12892;SDS011;6514;48.606;9.222;2023-11-19T01:57:13;2.00;;;1.80;;
12892;SDS011;6514;48.606;9.222;2023-11-19T01:59:41;2.07;;;1.77;;
12892;SDS011;6514;48.606;9.222;2023-11-19T02:02:08;2.27;;;1.80;;
12892;SDS011;6514;48.606;9.222;2023-11-19T02:04:35;2.50;;;1.77;;
12892;SDS011;6514;48.606;9.222;2023-11-19T02:07:03;1.67;;;1.40;;
12892;SDS011;6514;48.606;9.222;2023-11-19T02:09:32;1.60;;;1.50;;
12892;SDS011;6514;48.606;9.222;2023-11-19T02:11:59;1.70;;;1.60;;
12892;SDS011;6514;48.606;9.222;2023-11-19T02:14:26;1.63;;;1.53;;
12892;SDS011;6514;48.606;9.222;2023-11-19T02:16:53;1.70;;;1.60;;
12892;SDS011;6514;48.606;9.222;2023-11-19T02:19:20;1.50;;;1.40;;
12892;SDS011;6514;48.606;9.222;2023-11-19T02:21:47;1.40;;;1.30;;
12892;SDS011;6514;48.606;9.222;2023-11-19T02:24:14;1.40;;;1.30;;
12892;SDS011;6514;48.606;9.222;2023-11-19T02:26:47;1.57;;;1.13;;
12892;SDS011;6514;48.606;9.222;2023-11-19T02:29:25;0.90;;;0.83;;
12892;SDS011;6514;48.606;9.222;2023-11-19T02:31:52;0.70;;;0.70;;
12892;SDS011;6514;48.606;9.222;2023-11-19T02:34:20;1.60;;;1.00;;
12892;SDS011;6514;48.606;9.222;2023-11-19T02:36:47;0.80;;;0.80;;
12892;SDS011;6514;48.606;9.222;2023-11-19T02:39:15;0.97;;;0.80;;
12892;SDS011;6514;48.606;9.222;2023-11-19T02:41:46;0.87;;;0.77;;
12892;SDS011;6514;48.606;9.222;2023-11-19T02:44:15;1.23;;;0.90;;
12892;SDS011;6514;48.606;9.222;2023-11-19T02:46:44;1.73;;;0.70;;
12892;SDS011;6514;48.606;9.222;2023-11-19T02:49:13;0.87;;;0.63;;
12892;SDS011;6514;48.606;9.222;2023-11-19T02:51:40;0.97;;;0.90;;
12892;SDS011;6514;48.606;9.222;2023-11-19T02:54:06;2.33;;;0.70;;
12892;SDS011;6514;48.606;9.222;2023-11-19T02:56:33;0.70;;;0.70;;
12892;SDS011;6514;48.606;9.222;2023-11-19T02:59:02;0.80;;;0.80;;
12892;SDS011;6514;48.606;9.222;2023-11-19T03:01:33;3.00;;;0.80;;
12892;SDS011;6514;48.606;9.222;2023-11-19T03:04:02;1.10;;;1.00;;
12892;SDS011;6514;48.606;9.222;2023-11-19T03:06:29;0.80;;;0.80;;
12892;SDS011;6514;48.606;9.222;2023-11-19T03:08:57;0.93;;;0.90;;
12892;SDS011;6514;48.606;9.222;2023-11-19T03:11:23;0.70;;;0.70;;
12892;SDS011;6514;48.606;9.222;2023-11-19T03:13:50;0.90;;;0.70;;
12892;SDS011;6514;48.606;9.222;2023-11-19T03:16:17;0.87;;;0.70;;
12892;SDS011;6514;48.606;9.222;2023-11-19T03:18:44;0.83;;;0.70;;
12892;SDS011;6514;48.606;9.222;2023-11-19T03:21:12;2.60;;;1.33;;
12892;SDS011;6514;48.606;9.222;2023-11-19T03:23:39;0.50;;;0.50;;
12892;SDS011;6514;48.606;9.222;2023-11-19T03:26:06;1.27;;;0.80;;
12892;SDS011;6514;48.606;9.222;2023-11-19T03:28:34;0.70;;;0.70;;
12892;SDS011;6514;48.606;9.222;2023-11-19T03:31:01;0.60;;;0.50;;
12892;SDS011;6514;48.606;9.222;2023-11-19T03:33:33;1.73;;;0.67;;
12892;SDS011;6514;48.606;9.222;2023-11-19T03:36:00;0.67;;;0.67;;
12892;SDS011;6514;48.606;9.222;2023-11-19T03:38:28;0.70;;;0.70;;
12892;SDS011;6514;48.606;9.222;2023-11-19T03:40:54;0.63;;;0.60;;
12892;SDS011;6514;48.606;9.222;2023-11-19T03:43:21;0.70;;;0.60;;
12892;SDS011;6514;48.606;9.222;2023-11-19T03:45:48;0.47;;;0.47;;
12892;SDS011;6514;48.606;9.222;2023-11-19T03:48:15;0.60;;;0.60;;
12892;SDS011;6514;48.606;9.222;2023-11-19T03:50:42;0.57;;;0.57;;
12892;SDS011;6514;48.606;9.222;2023-11-19T03:53:09;0.67;;;0.67;;
12892;SDS011;6514;48.606;9.222;2023-11-19T03:55:37;0.60;;;0.60;;
12892;SDS011;6514;48.606;9.222;2023-11-19T03:58:04;1.00;;;0.63;;
12892;SDS011;6514;48.606;9.222;2023-11-19T04:00:30;0.43;;;0.43;;
12892;SDS011;6514;48.606;9.222;2023-11-19T04:02:58;0.40;;;0.40;;
12892;SDS011;6514;48.606;9.222;2023-11-19T04:05:25;0.77;;;0.60;;
12892;SDS011;6514;48.606;9.222;2023-11-19T04:07:52;0.57;;;0.57;;
12892;SDS011;6514;48.606;9.222;2023-11-19T04:10:18;0.50;;;0.40;;
12892;SDS011;6514;48.606;9.222;2023-11-19T04:12:48;0.90;;;0.90;;
12892;SDS011;6514;48.606;9.222;2023-11-19T04:15:15;0.70;;;0.70;;
12892;SDS011;6514;48.606;9.222;2023-11-19T04:17:42;1.10;;;0.60;;
12892;SDS011;6514;48.606;9.222;2023-11-19T04:20:09;0.90;;;0.70;;
12892;SDS011;6514;48.606;9.222;2023-11-19T04:22:38;0.70;;;0.60;;
12892;SDS011;6514;48.606;9.222;2023-11-19T04:25:06;0.90;;;0.70;;
12892;SDS011;6514;48.606;9.222;2023-11-19T04:27:33;3.17;;;1.20;;
12892;SDS011;6514;48.606;9.222;2023-11-19T04:30:01;1.00;;;0.90;;
12892;SDS011;6514;48.606;9.222;2023-11-19T04:32:28;1.27;;;1.07;;
12892;SDS011;6514;48.606;9.222;2023-11-19T04:34:55;2.50;;;1.50;;
12892;SDS011;6514;48.606;9.222;2023-11-19T04:37:22;1.67;;;1.03;;
12892;SDS011;6514;48.606;9.222;2023-11-19T04:39:49;2.17;;;1.60;;
12892;SDS011;6514;48.606;9.222;2023-11-19T04:42:16;1.53;;;1.30;;
12892;SDS011;6514;48.606;9.222;2023-11-19T04:44:43;3.60;;;0.90;;
12892;SDS011;6514;48.606;9.222;2023-11-19T04:47:11;1.70;;;1.30;;
12892;SDS011;6514;48.606;9.222;2023-11-19T04:49:39;2.37;;;2.17;;
12892;SDS011;6514;48.606;9.222;2023-11-19T04:52:08;5.80;;;3.40;;
12892;SDS011;6514;48.606;9.222;2023-11-19T04:54:40;3.40;;;2.13;;
12892;SDS011;6514;48.606;9.222;2023-11-19T04:57:07;4.60;;;2.40;;
12892;SDS011;6514;48.606;9.222;2023-11-19T04:59:35;5.13;;;3.00;;
12892;SDS011;6514;48.606;9.222;2023-11-19T05:02:02;6.20;;;2.13;;
12892;SDS011;6514;48.606;9.222;2023-11-19T05:04:31;2.70;;;1.87;;
12892;SDS011;6514;48.606;9.222;2023-11-19T05:06:58;2.50;;;1.60;;
12892;SDS011;6514;48.606;9.222;2023-11-19T05:09:25;4.23;;;1.90;;
12892;SDS011;6514;48.606;9.222;2023-11-19T05:11:51;1.13;;;1.03;;
12892;SDS011;6514;48.606;9.222;2023-11-19T05:14:18;1.23;;;1.10;;
12892;SDS011;6514;48.606;9.222;2023-11-19T05:16:46;3.60;;;0.97;;
12892;SDS011;6514;48.606;9.222;2023-11-19T05:19:13;0.60;;;0.40;;
12892;SDS011;6514;48.606;9.222;2023-11-19T05:21:42;0.60;;;0.60;;
12892;SDS011;6514;48.606;9.222;2023-11-19T05:24:09;1.13;;;0.47;;
12892;SDS011;6514;48.606;9.222;2023-11-19T05:26:36;0.40;;;0.40;;
12892;SDS011;6514;48.606;9.222;2023-11-19T05:29:04;0.40;;;0.40;;
12892;SDS011;6514;48.606;9.222;2023-11-19T05:31:30;0.50;;;0.50;;
12892;SDS011;6514;48.606;9.222;2023-11-19T05:33:57;0.90;;;0.30;;
12892;SDS011;6514;48.606;9.222;2023-11-19T05:36:24;0.60;;;0.43;;
12892;SDS011;6514;48.606;9.222;2023-11-19T05:38:52;0.30;;;0.30;;
12892;SDS011;6514;48.606;9.222;2023-11-19T05:41:19;0.40;;;0.40;;
12892;SDS011;6514;48.606;9.222;2023-11-19T05:43:46;1.60;;;0.33;;
12892;SDS011;6514;48.606;9.222;2023-11-19T05:46:12;0.50;;;0.50;;
12892;SDS011;6514;48.606;9.222;2023-11-19T05:48:39;0.33;;;0.33;;
12892;SDS011;6514;48.606;9.222;2023-11-19T05:51:06;0.57;;;0.40;;
12892;SDS011;6514;48.606;9.222;2023-11-19T05:53:33;0.40;;;0.40;;
12892;SDS011;6514;48.606;9.222;2023-11-19T05:56:01;0.30;;;0.30;;
12892;SDS011;6514;48.606;9.222;2023-11-19T05:58:29;0.40;;;0.40;;
12892;SDS011;6514;48.606;9.222;2023-11-19T06:00:57;0.30;;;0.30;;
12892;SDS011;6514;48.606;9.222;2023-11-19T06:03:25;0.97;;;0.30;;
12892;SDS011;6514;48.606;9.222;2023-11-19T06:05:52;0.40;;;0.37;;
12892;SDS011;6514;48.606;9.222;2023-11-19T06:08:19;0.30;;;0.30;;
12892;SDS011;6514;48.606;9.222;2023-11-19T06:10:46;0.40;;;0.40;;
12892;SDS011;6514;48.606;9.222;2023-11-19T06:13:17;0.30;;;0.30;;
12892;SDS011;6514;48.606;9.222;2023-11-19T06:15:44;0.47;;;0.40;;
12892;SDS011;6514;48.606;9.222;2023-11-19T06:18:11;1.23;;;0.40;;
12892;SDS011;6514;48.606;9.222;2023-11-19T06:20:40;0.40;;;0.40;;
12892;SDS011;6514;48.606;9.222;2023-11-19T06:23:07;1.90;;;0.30;;
12892;SDS011;6514;48.606;9.222;2023-11-19T06:25:33;1.37;;;0.60;;
12892;SDS011;6514;48.606;9.222;2023-11-19T06:28:00;0.40;;;0.40;;
12892;SDS011;6514;48.606;9.222;2023-11-19T06:30:28;0.40;;;0.40;;
12892;SDS011;6514;48.606;9.222;2023-11-19T06:32:57;0.20;;;0.20;;
12892;SDS011;6514;48.606;9.222;2023-11-19T06:35:24;1.67;;;0.30;;
12892;SDS011;6514;48.606;9.222;2023-11-19T06:37:51;2.23;;;0.30;;
12892;SDS011;6514;48.606;9.222;2023-11-19T06:40:18;0.73;;;0.40;;
12892;SDS011;6514;48.606;9.222;2023-11-19T06:42:45;0.80;;;0.73;;
12892;SDS011;6514;48.606;9.222;2023-11-19T06:45:12;0.50;;;0.50;;
12892;SDS011;6514;48.606;9.222;2023-11-19T06:47:40;0.70;;;0.60;;
12892;SDS011;6514;48.606;9.222;2023-11-19T06:50:07;2.10;;;0.20;;
12892;SDS011;6514;48.606;9.222;2023-11-19T06:52:34;0.57;;;0.50;;
12892;SDS011;6514;48.606;9.222;2023-11-19T06:55:02;0.30;;;0.30;;
12892;SDS011;6514;48.606;9.222;2023-11-19T06:57:29;1.87;;;1.43;;
12892;SDS011;6514;48.606;9.222;2023-11-19T06:59:57;8.03;;;3.13;;
12892;SDS011;6514;48.606;9.222;2023-11-19T07:02:24;2.67;;;1.90;;
12892;SDS011;6514;48.606;9.222;2023-11-19T07:04:52;0.67;;;0.67;;
12892;SDS011;6514;48.606;9.222;2023-11-19T07:07:19;0.73;;;0.73;;
12892;SDS011;6514;48.606;9.222;2023-11-19T07:09:46;1.03;;;0.43;;
12892;SDS011;6514;48.606;9.222;2023-11-19T07:12:13;2.40;;;0.50;;
12892;SDS011;6514;48.606;9.222;2023-11-19T07:14:40;2.73;;;0.70;;
12892;SDS011;6514;48.606;9.222;2023-11-19T07:17:09;1.83;;;1.10;;
12892;SDS011;6514;48.606;9.222;2023-11-19T07:19:36;1.00;;;0.80;;
12892;SDS011;6514;48.606;9.222;2023-11-19T07:22:04;0.60;;;0.60;;
12892;SDS011;6514;48.606;9.222;2023-11-19T07:24:32;1.87;;;0.53;;
12892;SDS011;6514;48.606;9.222;2023-11-19T07:26:59;3.00;;;0.80;;
12892;SDS011;6514;48.606;9.222;2023-11-19T07:29:28;0.90;;;0.63;;
12892;SDS011;6514;48.606;9.222;2023-11-19T07:31:55;1.13;;;0.60;;
12892;SDS011;6514;48.606;9.222;2023-11-19T07:34:22;1.90;;;0.60;;
12892;SDS011;6514;48.606;9.222;2023-11-19T07:36:48;0.67;;;0.47;;
12892;SDS011;6514;48.606;9.222;2023-11-19T07:39:16;0.90;;;0.90;;
12892;SDS011;6514;48.606;9.222;2023-11-19T07:41:43;2.70;;;0.87;;
12892;SDS011;6514;48.606;9.222;2023-11-19T07:44:10;0.77;;;0.67;;
12892;SDS011;6514;48.606;9.222;2023-11-19T07:46:37;0.50;;;0.50;;
12892;SDS011;6514;48.606;9.222;2023-11-19T07:49:04;1.00;;;0.80;;
12892;SDS011;6514;48.606;9.222;2023-11-19T07:51:30;1.57;;;1.00;;
12892;SDS011;6514;48.606;9.222;2023-11-19T07:53:57;1.93;;;1.00;;
12892;SDS011;6514;48.606;9.222;2023-11-19T07:56:25;0.70;;;0.53;;
12892;SDS011;6514;48.606;9.222;2023-11-19T07:58:52;0.80;;;0.80;;
12892;SDS011;6514;48.606;9.222;2023-11-19T08:01:19;1.07;;;0.90;;
12892;SDS011;6514;48.606;9.222;2023-11-19T08:03:46;0.70;;;0.70;;
12892;SDS011;6514;48.606;9.222;2023-11-19T08:06:12;0.60;;;0.60;;
12892;SDS011;6514;48.606;9.222;2023-11-19T08:08:39;1.27;;;0.57;;
12892;SDS011;6514;48.606;9.222;2023-11-19T08:11:06;1.03;;;0.93;;
12892;SDS011;6514;48.606;9.222;2023-11-19T08:13:34;1.80;;;1.03;;
12892;SDS011;6514;48.606;9.222;2023-11-19T08:16:01;1.73;;;1.47;;
12892;SDS011;6514;48.606;9.222;2023-11-19T08:18:28;1.27;;;1.07;;
12892;SDS011;6514;48.606;9.222;2023-11-19T08:20:55;0.50;;;0.50;;
12892;SDS011;6514;48.606;9.222;2023-11-19T08:23:23;0.67;;;0.60;;
12892;SDS011;6514;48.606;9.222;2023-11-19T08:25:50;0.50;;;0.50;;
12892;SDS011;6514;48.606;9.222;2023-11-19T08:28:18;0.60;;;0.60;;
12892;SDS011;6514;48.606;9.222;2023-11-19T08:30:46;0.60;;;0.60;;
12892;SDS011;6514;48.606;9.222;2023-11-19T08:33:13;0.70;;;0.70;;
12892;SDS011;6514;48.606;9.222;2023-11-19T08:35:40;0.50;;;0.50;;
12892;SDS011;6514;48.606;9.222;2023-11-19T08:38:06;0.80;;;0.80;;
12892;SDS011;6514;48.606;9.222;2023-11-19T08:40:33;0.63;;;0.63;;
12892;SDS011;6514;48.606;9.222;2023-11-19T08:43:00;0.60;;;0.60;;
12892;SDS011;6514;48.606;9.222;2023-11-19T08:45:27;0.47;;;0.47;;
12892;SDS011;6514;48.606;9.222;2023-11-19T08:47:55;0.43;;;0.40;;
12892;SDS011;6514;48.606;9.222;2023-11-19T08:50:22;0.80;;;0.70;;
12892;SDS011;6514;48.606;9.222;2023-11-19T08:52:49;0.90;;;0.67;;
12892;SDS011;6514;48.606;9.222;2023-11-19T08:55:15;0.50;;;0.50;;
12892;SDS011;6514;48.606;9.222;2023-11-19T08:57:42;1.63;;;0.37;;
12892;SDS011;6514;48.606;9.222;2023-11-19T09:00:10;0.30;;;0.30;;
12892;SDS011;6514;48.606;9.222;2023-11-19T09:02:39;0.40;;;0.40;;
12892;SDS011;6514;48.606;9.222;2023-11-19T09:05:07;1.47;;;0.50;;
12892;SDS011;6514;48.606;9.222;2023-11-19T09:07:34;0.50;;;0.50;;
12892;SDS011;6514;48.606;9.222;2023-11-19T09:10:01;0.40;;;0.40;;
12892;SDS011;6514;48.606;9.222;2023-11-19T09:12:30;0.40;;;0.40;;
12892;SDS011;6514;48.606;9.222;2023-11-19T09:14:57;0.63;;;0.50;;
12892;SDS011;6514;48.606;9.222;2023-11-19T09:17:23;0.80;;;0.80;;
12892;SDS011;6514;48.606;9.222;2023-11-19T09:19:50;0.57;;;0.57;;
12892;SDS011;6514;48.606;9.222;2023-11-19T09:22:18;0.50;;;0.50;;
12892;SDS011;6514;48.606;9.222;2023-11-19T09:24:45;0.50;;;0.50;;
12892;SDS011;6514;48.606;9.222;2023-11-19T09:27:13;0.83;;;0.60;;
12892;SDS011;6514;48.606;9.222;2023-11-19T09:29:40;2.30;;;0.57;;
12892;SDS011;6514;48.606;9.222;2023-11-19T09:32:08;1.23;;;0.50;;
12892;SDS011;6514;48.606;9.222;2023-11-19T09:34:34;0.50;;;0.50;;
12892;SDS011;6514;48.606;9.222;2023-11-19T09:37:01;0.40;;;0.40;;
12892;SDS011;6514;48.606;9.222;2023-11-19T09:39:30;0.63;;;0.63;;
12892;SDS011;6514;48.606;9.222;2023-11-19T09:41:57;0.47;;;0.47;;
12892;SDS011;6514;48.606;9.222;2023-11-19T09:44:24;1.73;;;0.50;;
12892;SDS011;6514;48.606;9.222;2023-11-19T09:46:51;1.60;;;0.40;;
12892;SDS011;6514;48.606;9.222;2023-11-19T09:49:20;0.47;;;0.40;;
12892;SDS011;6514;48.606;9.222;2023-11-19T09:51:48;0.37;;;0.37;;
12892;SDS011;6514;48.606;9.222;2023-11-19T09:54:15;0.57;;;0.30;;
12892;SDS011;6514;48.606;9.222;2023-11-19T09:56:43;0.87;;;0.50;;
12892;SDS011;6514;48.606;9.222;2023-11-19T09:59:11;0.50;;;0.40;;
12892;SDS011;6514;48.606;9.222;2023-11-19T10:01:37;0.40;;;0.40;;
12892;SDS011;6514;48.606;9.222;2023-11-19T10:04:05;0.50;;;0.40;;
12892;SDS011;6514;48.606;9.222;2023-11-19T10:06:32;0.50;;;0.50;;
12892;SDS011;6514;48.606;9.222;2023-11-19T10:08:59;0.40;;;0.40;;
12892;SDS011;6514;48.606;9.222;2023-11-19T10:11:26;0.77;;;0.50;;
12892;SDS011;6514;48.606;9.222;2023-11-19T10:13:54;0.63;;;0.40;;
12892;SDS011;6514;48.606;9.222;2023-11-19T10:16:27;0.40;;;0.33;;
12892;SDS011;6514;48.606;9.222;2023-11-19T10:18:56;0.50;;;0.50;;
12892;SDS011;6514;48.606;9.222;2023-11-19T10:21:22;0.80;;;0.60;;
12892;SDS011;6514;48.606;9.222;2023-11-19T10:23:50;0.40;;;0.40;;
12892;SDS011;6514;48.606;9.222;2023-11-19T10:26:18;0.90;;;0.63;;
12892;SDS011;6514;48.606;9.222;2023-11-19T10:28:46;0.70;;;0.70;;
12892;SDS011;6514;48.606;9.222;2023-11-19T10:31:15;0.30;;;0.30;;
12892;SDS011;6514;48.606;9.222;2023-11-19T10:33:43;0.87;;;0.30;;
12892;SDS011;6514;48.606;9.222;2023-11-19T10:36:10;0.37;;;0.37;;
12892;SDS011;6514;48.606;9.222;2023-11-19T10:38:38;0.67;;;0.43;;
12892;SDS011;6514;48.606;9.222;2023-11-19T10:41:05;0.40;;;0.40;;
12892;SDS011;6514;48.606;9.222;2023-11-19T10:43:42;0.60;;;0.60;;
12892;SDS011;6514;48.606;9.222;2023-11-19T10:46:09;0.60;;;0.60;;
12892;SDS011;6514;48.606;9.222;2023-11-19T10:48:38;0.40;;;0.40;;
12892;SDS011;6514;48.606;9.222;2023-11-19T10:51:05;0.40;;;0.40;;
12892;SDS011;6514;48.606;9.222;2023-11-19T10:53:33;0.50;;;0.50;;
12892;SDS011;6514;48.606;9.222;2023-11-19T10:56:04;0.53;;;0.50;;
12892;SDS011;6514;48.606;9.222;2023-11-19T10:58:36;0.40;;;0.40;;
12892;SDS011;6514;48.606;9.222;2023-11-19T11:01:07;0.73;;;0.50;;
12892;SDS011;6514;48.606;9.222;2023-11-19T11:03:40;0.87;;;0.40;;
12892;SDS011;6514;48.606;9.222;2023-11-19T11:06:08;0.80;;;0.43;;
12892;SDS011;6514;48.606;9.222;2023-11-19T11:08:37;1.17;;;0.80;;
12892;SDS011;6514;48.606;9.222;2023-11-19T11:11:05;0.40;;;0.37;;
12892;SDS011;6514;48.606;9.222;2023-11-19T11:13:33;0.83;;;0.57;;
12892;SDS011;6514;48.606;9.222;2023-11-19T11:16:01;1.13;;;0.40;;
12892;SDS011;6514;48.606;9.222;2023-11-19T11:18:32;0.50;;;0.40;;
12892;SDS011;6514;48.606;9.222;2023-11-19T11:21:01;0.40;;;0.40;;
12892;SDS011;6514;48.606;9.222;2023-11-19T11:23:36;0.30;;;0.30;;
12892;SDS011;6514;48.606;9.222;2023-11-19T11:26:27;1.87;;;0.60;;
12892;SDS011;6514;48.606;9.222;2023-11-19T11:29:03;0.50;;;0.50;;
12892;SDS011;6514;48.606;9.222;2023-11-19T11:31:36;0.57;;;0.40;;
12892;SDS011;6514;48.606;9.222;2023-11-19T11:34:19;0.63;;;0.40;;
12892;SDS011;6514;48.606;9.222;2023-11-19T11:37:12;0.70;;;0.60;;
12892;SDS011;6514;48.606;9.222;2023-11-19T11:39:45;1.13;;;0.40;;
12892;SDS011;6514;48.606;9.222;2023-11-19T11:44:59;1.30;;;0.60;;
12892;SDS011;6514;48.606;9.222;2023-11-19T11:50:28;0.40;;;0.27;;
12892;SDS011;6514;48.606;9.222;2023-11-19T11:55:54;2.67;;;0.40;;
12892;SDS011;6514;48.606;9.222;2023-11-19T11:58:30;0.67;;;0.47;;
12892;SDS011;6514;48.606;9.222;2023-11-19T12:00:59;0.93;;;0.40;;
12892;SDS011;6514;48.606;9.222;2023-11-19T12:03:28;0.87;;;0.40;;
12892;SDS011;6514;48.606;9.222;2023-11-19T12:05:56;0.40;;;0.40;;
12892;SDS011;6514;48.606;9.222;2023-11-19T12:08:26;0.40;;;0.40;;
12892;SDS011;6514;48.606;9.222;2023-11-19T12:10:55;0.60;;;0.60;;
12892;SDS011;6514;48.606;9.222;2023-11-19T12:13:24;0.40;;;0.40;;
12892;SDS011;6514;48.606;9.222;2023-11-19T12:16:07;0.40;;;0.40;;
12892;SDS011;6514;48.606;9.222;2023-11-19T12:18:34;3.07;;;0.77;;
12892;SDS011;6514;48.606;9.222;2023-11-19T12:21:01;1.03;;;0.40;;
12892;SDS011;6514;48.606;9.222;2023-11-19T12:23:29;0.50;;;0.30;;
12892;SDS011;6514;48.606;9.222;2023-11-19T12:25:57;0.63;;;0.40;;
12892;SDS011;6514;48.606;9.222;2023-11-19T12:28:24;0.40;;;0.40;;
12892;SDS011;6514;48.606;9.222;2023-11-19T12:30:51;0.80;;;0.40;;
12892;SDS011;6514;48.606;9.222;2023-11-19T12:33:19;0.70;;;0.50;;
12892;SDS011;6514;48.606;9.222;2023-11-19T12:35:47;0.40;;;0.40;;
12892;SDS011;6514;48.606;9.222;2023-11-19T12:38:20;0.30;;;0.30;;
12892;SDS011;6514;48.606;9.222;2023-11-19T12:41:03;0.73;;;0.50;;
12892;SDS011;6514;48.606;9.222;2023-11-19T12:43:30;0.40;;;0.30;;
12892;SDS011;6514;48.606;9.222;2023-11-19T12:45:59;0.60;;;0.50;;
12892;SDS011;6514;48.606;9.222;2023-11-19T12:48:26;0.60;;;0.60;;
12892;SDS011;6514;48.606;9.222;2023-11-19T12:50:53;1.10;;;0.70;;
12892;SDS011;6514;48.606;9.222;2023-11-19T12:53:20;3.97;;;3.27;;
12892;SDS011;6514;48.606;9.222;2023-11-19T12:55:48;1.17;;;1.07;;
12892;SDS011;6514;48.606;9.222;2023-11-19T12:58:31;0.57;;;0.53;;
12892;SDS011;6514;48.606;9.222;2023-11-19T13:01:00;1.57;;;0.43;;
12892;SDS011;6514;48.606;9.222;2023-11-19T13:03:30;0.30;;;0.30;;
12892;SDS011;6514;48.606;9.222;2023-11-19T13:06:05;2.40;;;0.40;;
12892;SDS011;6514;48.606;9.222;2023-11-19T13:08:37;0.23;;;0.23;;
12892;SDS011;6514;48.606;9.222;2023-11-19T13:11:04;0.37;;;0.37;;
12892;SDS011;6514;48.606;9.222;2023-11-19T13:13:49;0.40;;;0.40;;
12892;SDS011;6514;48.606;9.222;2023-11-19T13:16:19;0.40;;;0.30;;
12892;SDS011;6514;48.606;9.222;2023-11-19T13:18:47;0.30;;;0.30;;
12892;SDS011;6514;48.606;9.222;2023-11-19T13:21:13;1.60;;;0.47;;
12892;SDS011;6514;48.606;9.222;2023-11-19T13:23:40;1.07;;;0.47;;
12892;SDS011;6514;48.606;9.222;2023-11-19T13:26:07;1.13;;;0.60;;
12892;SDS011;6514;48.606;9.222;2023-11-19T13:28:36;0.70;;;0.40;;
12892;SDS011;6514;48.606;9.222;2023-11-19T13:31:03;0.67;;;0.30;;
12892;SDS011;6514;48.606;9.222;2023-11-19T13:33:30;0.40;;;0.30;;
12892;SDS011;6514;48.606;9.222;2023-11-19T13:35:57;0.97;;;0.40;;
12892;SDS011;6514;48.606;9.222;2023-11-19T13:38:24;2.10;;;0.40;;
12892;SDS011;6514;48.606;9.222;2023-11-19T13:40:51;0.63;;;0.30;;
12892;SDS011;6514;48.606;9.222;2023-11-19T13:43:18;1.53;;;0.70;;
12892;SDS011;6514;48.606;9.222;2023-11-19T13:45:46;0.50;;;0.40;;
12892;SDS011;6514;48.606;9.222;2023-11-19T13:48:13;0.50;;;0.30;;
12892;SDS011;6514;48.606;9.222;2023-11-19T13:50:40;0.57;;;0.47;;
12892;SDS011;6514;48.606;9.222;2023-11-19T13:53:07;0.70;;;0.40;;
12892;SDS011;6514;48.606;9.222;2023-11-19T13:55:34;1.57;;;0.60;;
12892;SDS011;6514;48.606;9.222;2023-11-19T13:58:01;0.70;;;0.50;;
12892;SDS011;6514;48.606;9.222;2023-11-19T14:00:27;0.40;;;0.40;;
12892;SDS011;6514;48.606;9.222;2023-11-19T14:02:55;1.33;;;0.50;;
12892;SDS011;6514;48.606;9.222;2023-11-19T14:05:22;0.70;;;0.60;;
12892;SDS011;6514;48.606;9.222;2023-11-19T14:07:49;1.63;;;0.30;;
12892;SDS011;6514;48.606;9.222;2023-11-19T14:10:16;1.13;;;0.60;;
12892;SDS011;6514;48.606;9.222;2023-11-19T14:12:43;1.33;;;0.50;;
12892;SDS011;6514;48.606;9.222;2023-11-19T14:15:11;0.40;;;0.40;;
12892;SDS011;6514;48.606;9.222;2023-11-19T14:17:38;0.50;;;0.50;;
12892;SDS011;6514;48.606;9.222;2023-11-19T14:20:07;1.57;;;0.43;;
12892;SDS011;6514;48.606;9.222;2023-11-19T14:22:38;1.23;;;1.00;;
12892;SDS011;6514;48.606;9.222;2023-11-19T14:25:05;1.63;;;1.00;;
12892;SDS011;6514;48.606;9.222;2023-11-19T14:27:34;1.83;;;0.73;;
12892;SDS011;6514;48.606;9.222;2023-11-19T14:30:02;2.50;;;0.80;;
12892;SDS011;6514;48.606;9.222;2023-11-19T14:32:30;0.30;;;0.30;;
12892;SDS011;6514;48.606;9.222;2023-11-19T14:34:57;0.90;;;0.40;;
12892;SDS011;6514;48.606;9.222;2023-11-19T14:37:25;0.90;;;0.63;;
12892;SDS011;6514;48.606;9.222;2023-11-19T14:39:52;1.17;;;0.40;;
12892;SDS011;6514;48.606;9.222;2023-11-19T14:42:19;0.83;;;0.50;;
12892;SDS011;6514;48.606;9.222;2023-11-19T14:44:45;0.50;;;0.50;;
12892;SDS011;6514;48.606;9.222;2023-11-19T14:47:12;2.73;;;0.50;;
12892;SDS011;6514;48.606;9.222;2023-11-19T14:49:39;0.30;;;0.30;;
12892;SDS011;6514;48.606;9.222;2023-11-19T14:52:06;1.20;;;0.60;;
12892;SDS011;6514;48.606;9.222;2023-11-19T14:54:34;1.00;;;0.50;;
12892;SDS011;6514;48.606;9.222;2023-11-19T14:57:01;1.17;;;0.43;;
12892;SDS011;6514;48.606;9.222;2023-11-19T14:59:28;1.90;;;0.40;;
12892;SDS011;6514;48.606;9.222;2023-11-19T15:01:55;1.07;;;0.30;;
12892;SDS011;6514;48.606;9.222;2023-11-19T15:04:21;0.90;;;0.40;;
12892;SDS011;6514;48.606;9.222;2023-11-19T15:06:47;1.50;;;0.53;;
12892;SDS011;6514;48.606;9.222;2023-11-19T15:09:14;0.57;;;0.57;;
12892;SDS011;6514;48.606;9.222;2023-11-19T15:11:43;1.07;;;0.60;;
12892;SDS011;6514;48.606;9.222;2023-11-19T15:14:11;1.97;;;0.50;;